createdAt,value
2023-04-05T00:01:20.361Z,66.90
2023-04-05T00:03:44.276Z,67.03
2023-04-05T00:06:09.240Z,66.77
2023-04-05T00:08:33.013Z,65.99
2023-04-05T00:10:58.171Z,66.85
2023-04-05T00:13:22.703Z,66.64
2023-04-05T00:15:46.507Z,67.05
2023-04-05T00:18:21.863Z,67.14
2023-04-05T00:20:45.618Z,66.46
2023-04-05T00:23:10.567Z,66.62
2023-04-05T00:25:34.225Z,67.42
2023-04-05T00:27:59.226Z,66.61
2023-04-05T00:30:23.729Z,67.43
2023-04-05T00:32:50.185Z,67.81
2023-04-05T00:35:14.219Z,67.18
2023-04-05T00:37:37.949Z,67.28
2023-04-05T00:40:01.663Z,66.54
2023-04-05T00:42:25.614Z,67.06
2023-04-05T00:44:50.773Z,67.38
2023-04-05T00:47:14.517Z,68.49
2023-04-05T00:49:39.194Z,68.63
2023-04-05T00:52:03.978Z,66.58
2023-04-05T00:54:28.858Z,68.52
2023-04-05T00:56:53.338Z,67.51
2023-04-05T00:59:17.172Z,68.57
2023-04-05T01:01:43.280Z,68.16
2023-04-05T01:04:07.615Z,69.14
2023-04-05T01:06:46.333Z,67.67
2023-04-05T01:09:23.421Z,66.71
2023-04-05T01:11:49.018Z,68.76
2023-04-05T01:14:12.799Z,70.44
2023-04-05T01:16:36.903Z,69.64
2023-04-05T01:19:04.035Z,68.55
2023-04-05T01:22:14.941Z,70.27
2023-04-05T01:25:02.826Z,71.57
2023-04-05T01:27:39.429Z,69.26
2023-04-05T01:30:10.825Z,71.58
2023-04-05T01:33:06.268Z,71.09
2023-04-05T01:35:39.101Z,69.25
2023-04-05T01:38:06.481Z,68.56
2023-04-05T01:40:31.476Z,71.10
2023-04-05T01:42:55.308Z,69.91
2023-04-05T01:45:20.650Z,69.52
2023-04-05T01:47:44.417Z,71.68
2023-04-05T01:50:10.051Z,70.74
2023-04-05T01:52:33.851Z,69.57
2023-04-05T01:54:57.631Z,68.50
2023-04-05T01:57:21.568Z,68.58
2023-04-05T01:59:45.231Z,67.56
2023-04-05T02:02:11.002Z,69.85
2023-04-05T02:04:35.371Z,72.76
2023-04-05T02:07:02.398Z,70.99
2023-04-05T02:09:27.569Z,70.81
2023-04-05T02:11:51.564Z,70.05
2023-04-05T02:14:15.153Z,70.59
2023-04-05T02:16:39.086Z,69.07
2023-04-05T02:19:06.144Z,67.93
2023-04-05T02:21:30.176Z,67.38
2023-04-05T02:23:54.474Z,70.74
2023-04-05T02:26:19.817Z,71.75
2023-04-05T02:28:44.030Z,72.93
2023-04-05T02:31:12.011Z,73.48
2023-04-05T02:33:39.367Z,72.78
2023-04-05T02:36:07.436Z,72.72
2023-04-05T02:38:31.548Z,73.06
2023-04-05T02:40:55.521Z,72.96
2023-04-05T02:43:19.305Z,73.59
2023-04-05T02:45:44.387Z,71.83
2023-04-05T02:48:10.128Z,73.39
2023-04-05T02:50:34.484Z,72.90
2023-04-05T02:53:00.155Z,71.95
2023-04-05T02:55:26.105Z,71.18
2023-04-05T02:57:49.973Z,71.62
2023-04-05T03:00:29.176Z,71.48
2023-04-05T03:02:55.733Z,71.76
2023-04-05T03:05:20.817Z,72.27
2023-04-05T03:07:51.238Z,72.95
2023-04-05T03:10:22.569Z,72.91
2023-04-05T03:12:52.559Z,70.85
2023-04-05T03:15:20.633Z,72.20
2023-04-05T03:17:45.969Z,72.94
2023-04-05T03:20:12.932Z,73.31
2023-04-05T03:22:36.902Z,72.57
2023-04-05T03:25:01.317Z,71.70
2023-04-05T03:27:29.248Z,70.67
2023-04-05T03:30:03.898Z,72.19
2023-04-05T03:32:32.060Z,71.79
2023-04-05T03:35:03.816Z,72.26
2023-04-05T03:37:28.769Z,71.62
2023-04-05T03:39:59.123Z,71.60
2023-04-05T03:42:22.887Z,72.76
2023-04-05T03:44:51.270Z,72.75
2023-04-05T03:47:15.426Z,73.05
2023-04-05T03:49:39.760Z,72.25
2023-04-05T03:52:03.493Z,72.77
2023-04-05T03:54:27.145Z,72.77
2023-04-05T03:56:54.158Z,73.30
2023-04-05T03:59:18.084Z,73.70
2023-04-05T04:01:44.856Z,72.05
2023-04-05T04:04:08.800Z,72.54
2023-04-05T04:06:32.664Z,72.42
2023-04-05T04:08:57.161Z,71.91
2023-04-05T04:11:20.969Z,71.73
2023-04-05T04:13:44.938Z,71.10
2023-04-05T04:16:29.110Z,72.26
2023-04-05T04:19:00.045Z,72.70
2023-04-05T04:21:33.736Z,72.61
2023-04-05T04:24:18.857Z,72.15
2023-04-05T04:26:43.045Z,71.15
2023-04-05T04:29:30.684Z,72.21
2023-04-05T04:32:15.846Z,72.03
2023-04-05T04:35:08.256Z,71.40
2023-04-05T04:37:59.146Z,70.67
2023-04-05T04:40:50.934Z,71.86
2023-04-05T04:43:47.058Z,72.20
2023-04-05T04:46:15.185Z,72.82
2023-04-05T04:48:57.610Z,72.69
2023-04-05T04:51:31.512Z,73.85
2023-04-05T04:53:55.608Z,74.17
2023-04-05T04:56:19.265Z,74.06
2023-04-05T04:58:43.001Z,73.71
2023-04-05T05:01:10.435Z,73.91
2023-04-05T05:03:36.730Z,73.00
2023-04-05T05:06:00.320Z,72.89
2023-04-05T05:08:29.224Z,72.16
2023-04-05T05:10:53.788Z,72.94
2023-04-05T05:13:17.548Z,73.14
2023-04-05T05:15:42.443Z,72.25
2023-04-05T05:18:06.422Z,73.98
2023-04-05T05:20:30.247Z,73.15
2023-04-05T05:22:54.102Z,74.89
2023-04-05T05:25:20.186Z,72.68
2023-04-05T05:27:44.027Z,73.52
2023-04-05T05:30:09.324Z,73.45
2023-04-05T05:32:33.027Z,73.39
2023-04-05T05:34:56.812Z,72.34
2023-04-05T05:37:20.457Z,73.82
2023-04-05T05:39:44.636Z,72.67
2023-04-05T05:42:09.766Z,72.99
2023-04-05T05:44:33.422Z,72.56
2023-04-05T05:46:57.086Z,71.91
2023-04-05T05:49:20.745Z,71.80
2023-04-05T05:51:44.470Z,71.12
2023-04-05T05:54:08.143Z,69.85
2023-04-05T05:56:31.827Z,69.42
2023-04-05T05:58:57.163Z,70.23
2023-04-05T06:01:22.933Z,69.41
2023-04-05T06:03:46.766Z,70.56
2023-04-05T06:06:11.381Z,69.88
2023-04-05T06:08:35.233Z,70.45
2023-04-05T06:10:59.021Z,68.98
2023-04-05T06:13:22.864Z,68.68
2023-04-05T06:15:49.381Z,67.29
2023-04-05T06:18:13.137Z,67.34
2023-04-05T06:20:40.418Z,66.43
2023-04-05T06:23:04.322Z,66.62
2023-04-05T06:25:28.039Z,66.58
2023-04-05T06:27:51.767Z,66.88
2023-04-05T06:30:16.474Z,65.36
2023-04-05T06:32:41.826Z,65.35
2023-04-05T06:35:06.776Z,65.95
2023-04-05T06:37:30.360Z,64.84
2023-04-05T06:39:54.066Z,64.70
2023-04-05T06:42:17.633Z,66.09
2023-04-05T06:44:49.082Z,64.95
2023-04-05T06:47:12.824Z,63.88
2023-04-05T06:49:37.833Z,64.56
2023-04-05T06:52:02.959Z,63.86
2023-04-05T06:54:26.546Z,63.63
2023-04-05T06:56:50.352Z,63.43
2023-04-05T06:59:14.070Z,62.65
2023-04-05T07:01:38.076Z,62.85
2023-04-05T07:04:01.802Z,62.65
2023-04-05T07:06:27.093Z,63.31
2023-04-05T07:08:51.110Z,62.00
2023-04-05T07:11:15.416Z,61.48
2023-04-05T07:13:39.058Z,61.13
2023-04-05T07:16:04.413Z,59.84
2023-04-05T07:18:28.328Z,59.88
2023-04-05T07:20:52.313Z,58.23
2023-04-05T07:23:18.294Z,56.83
2023-04-05T07:25:42.502Z,58.52
2023-04-05T07:28:06.397Z,57.34
2023-04-05T07:30:31.918Z,55.67
2023-04-05T07:32:55.926Z,57.74
2023-04-05T07:35:19.803Z,56.97
2023-04-05T07:37:43.399Z,55.83
2023-04-05T07:40:11.118Z,55.92
2023-04-05T07:42:35.233Z,56.15
2023-04-05T07:44:58.915Z,54.81
2023-04-05T07:47:22.570Z,55.45
2023-04-05T07:49:46.569Z,54.13
2023-04-05T07:52:10.256Z,53.46
2023-04-05T07:54:34.681Z,52.14
2023-04-05T07:57:01.147Z,53.37
2023-04-05T07:59:25.144Z,53.35
2023-04-05T08:01:48.877Z,52.27
2023-04-05T08:04:12.762Z,51.94
2023-04-05T08:06:36.811Z,52.55
2023-04-05T08:09:00.573Z,50.92
2023-04-05T08:11:24.307Z,51.01
2023-04-05T08:13:49.663Z,52.03
2023-04-05T08:16:13.575Z,51.21
2023-04-05T08:18:37.583Z,50.46
2023-04-05T08:21:01.472Z,48.93
2023-04-05T08:23:25.431Z,49.90
2023-04-05T08:25:49.245Z,48.99
2023-04-05T08:28:13.153Z,49.17
2023-04-05T08:30:39.189Z,47.92
2023-04-05T08:33:03.125Z,48.37
2023-04-05T08:35:26.955Z,48.51
2023-04-05T08:37:50.985Z,48.63
2023-04-05T08:40:15.275Z,47.50
2023-04-05T08:42:47.722Z,47.56
2023-04-05T08:45:12.400Z,47.43
2023-04-05T08:47:39.260Z,46.13
2023-04-05T08:50:03.257Z,45.45
2023-04-05T08:52:27.676Z,48.70
2023-04-05T08:54:53.517Z,45.82
2023-04-05T08:57:17.998Z,44.96
2023-04-05T08:59:43.102Z,45.43
2023-04-05T09:02:21.143Z,47.81
2023-04-05T09:04:48.925Z,46.18
2023-04-05T09:07:15.052Z,46.49
2023-04-05T09:09:41.271Z,45.14
2023-04-05T09:12:05.745Z,46.06
2023-04-05T09:14:31.434Z,44.43
2023-04-05T09:16:56.177Z,43.82
2023-04-05T09:19:19.947Z,44.83
2023-04-05T09:22:13.300Z,44.03
2023-04-05T09:24:40.884Z,44.06
2023-04-05T09:27:10.504Z,44.61
2023-04-05T09:29:34.290Z,43.99
2023-04-05T09:32:03.461Z,43.49
2023-04-05T09:34:27.376Z,42.18
2023-04-05T09:36:51.441Z,42.47
2023-04-05T09:39:21.599Z,41.25
2023-04-05T09:42:06.987Z,41.18
2023-04-05T09:44:51.336Z,41.27
2023-04-05T09:47:17.880Z,39.89
2023-04-05T09:49:41.559Z,40.36
2023-04-05T09:52:05.440Z,41.72
2023-04-05T09:54:31.139Z,40.37
2023-04-05T09:56:57.663Z,40.63
2023-04-05T09:59:22.105Z,40.92
2023-04-05T10:01:46.446Z,41.44
2023-04-05T10:04:10.630Z,38.95
2023-04-05T10:06:39.270Z,40.69
2023-04-05T10:09:03.662Z,42.00
2023-04-05T10:11:30.188Z,40.55
2023-04-05T10:13:54.040Z,41.06
2023-04-05T10:16:22.802Z,40.72
2023-04-05T10:18:53.391Z,40.74
2023-04-05T10:21:24.464Z,42.45
2023-04-05T10:23:53.030Z,42.33
2023-04-05T10:26:25.388Z,42.89
2023-04-05T10:28:58.163Z,42.53
2023-04-05T10:31:36.918Z,44.43
2023-04-05T10:34:07.895Z,42.01
2023-04-05T10:36:43.397Z,43.22
2023-04-05T10:39:14.434Z,43.08
2023-04-05T10:41:46.810Z,42.03
2023-04-05T10:44:25.089Z,42.84
2023-04-05T10:46:49.974Z,43.11
2023-04-05T10:49:22.048Z,42.23
2023-04-05T10:51:46.721Z,42.42
2023-04-05T10:54:11.752Z,44.00
2023-04-05T10:56:35.653Z,42.51
2023-04-05T10:59:01.372Z,42.21
2023-04-05T11:01:27.956Z,42.42
2023-04-05T11:03:55.053Z,43.03
2023-04-05T11:06:32.637Z,42.35
2023-04-05T11:09:00.958Z,42.08
2023-04-05T11:11:27.157Z,43.62
2023-04-05T11:13:53.334Z,43.48
2023-04-05T11:16:17.162Z,43.51
2023-04-05T11:18:47.391Z,42.13
2023-04-05T11:21:11.184Z,42.79
2023-04-05T11:24:04.695Z,42.93
2023-04-05T11:26:34.125Z,43.52
2023-04-05T11:29:00.019Z,43.09
2023-04-05T11:31:27.010Z,41.36
2023-04-05T11:34:10.629Z,42.16
2023-04-05T11:36:42.213Z,42.25
2023-04-05T11:39:28.483Z,41.81
2023-04-05T11:42:03.942Z,40.27
2023-04-05T11:44:28.235Z,43.89
2023-04-05T11:46:52.387Z,43.58
2023-04-05T11:49:17.979Z,42.56
2023-04-05T11:51:43.858Z,42.42
2023-04-05T11:54:07.788Z,43.41
2023-04-05T11:56:31.794Z,45.75
2023-04-05T11:59:00.107Z,43.62
2023-04-05T12:01:23.916Z,44.64
2023-04-05T12:03:56.147Z,44.22
2023-04-05T12:06:24.919Z,45.53
2023-04-05T12:08:50.858Z,45.85
2023-04-05T12:11:15.060Z,45.02
2023-04-05T12:13:40.476Z,46.47
2023-04-05T12:16:06.281Z,45.21
2023-04-05T12:18:32.425Z,44.67
2023-04-05T12:20:56.563Z,45.27
2023-04-05T12:23:22.754Z,45.66
2023-04-05T12:25:48.741Z,46.17
2023-04-05T12:28:12.668Z,45.43
2023-04-05T12:30:38.648Z,45.03
2023-04-05T12:33:10.143Z,43.87
2023-04-05T12:35:36.084Z,45.33
2023-04-05T12:38:00.436Z,44.84
2023-04-05T12:40:25.927Z,42.57
2023-04-05T12:42:49.670Z,43.63
2023-04-05T12:45:15.280Z,43.78
2023-04-05T12:47:53.627Z,43.71
2023-04-05T12:50:19.801Z,43.72
2023-04-05T12:52:58.110Z,42.54
2023-04-05T12:55:22.533Z,41.39
2023-04-05T12:57:52.770Z,42.50
2023-04-05T13:00:17.821Z,43.86
2023-04-05T13:02:41.628Z,42.46
2023-04-05T13:05:05.917Z,41.81
2023-04-05T13:07:29.560Z,43.01
2023-04-05T13:09:53.303Z,40.98
2023-04-05T13:12:17.162Z,41.56
2023-04-05T13:14:42.337Z,40.23
2023-04-05T13:17:06.033Z,43.14
2023-04-05T13:19:29.718Z,42.11
2023-04-05T13:21:53.344Z,42.69
2023-04-05T13:24:17.068Z,41.33
2023-04-05T13:26:40.793Z,41.37
2023-04-05T13:29:05.306Z,40.87
2023-04-05T13:31:30.582Z,39.40
2023-04-05T13:33:54.342Z,42.19
2023-04-05T13:36:18.032Z,40.92
2023-04-05T13:38:42.567Z,39.92
2023-04-05T13:41:06.674Z,41.23
2023-04-05T13:43:31.488Z,40.08
2023-04-05T13:45:55.481Z,39.34
2023-04-05T13:48:20.714Z,38.63
2023-04-05T13:50:44.372Z,39.35
2023-04-05T13:53:08.120Z,40.68
2023-04-05T13:55:31.723Z,41.03
2023-04-05T13:57:55.371Z,38.21
2023-04-05T14:00:19.661Z,37.19
2023-04-05T14:02:43.995Z,39.60
2023-04-05T14:05:10.608Z,39.77
2023-04-05T14:07:34.781Z,39.92
2023-04-05T14:09:58.580Z,37.54
2023-04-05T14:12:22.562Z,36.92
2023-04-05T14:14:46.757Z,40.12
2023-04-05T14:17:12.636Z,38.37
2023-04-05T14:19:36.595Z,37.08
2023-04-05T14:22:02.078Z,37.75
2023-04-05T14:24:25.926Z,37.21
2023-04-05T14:26:50.526Z,40.27
2023-04-05T14:29:14.467Z,36.58
2023-04-05T14:31:38.379Z,37.57
2023-04-05T14:34:02.256Z,38.49
2023-04-05T14:36:26.477Z,38.59
2023-04-05T14:38:51.764Z,36.73
2023-04-05T14:41:16.681Z,40.00
2023-04-05T14:43:40.796Z,38.08
2023-04-05T14:46:04.828Z,38.84
2023-04-05T14:48:30.369Z,41.35
2023-04-05T14:50:54.414Z,41.50
2023-04-05T14:53:18.289Z,42.92
2023-04-05T14:55:43.753Z,41.04
2023-04-05T14:58:07.646Z,41.49
2023-04-05T15:00:31.607Z,41.34
2023-04-05T15:02:55.775Z,43.20
2023-04-05T15:05:20.601Z,40.77
2023-04-05T15:07:44.397Z,41.18
2023-04-05T15:10:09.502Z,40.85
2023-04-05T15:12:35.429Z,41.94
2023-04-05T15:14:59.863Z,39.86
2023-04-05T15:17:23.923Z,40.88
2023-04-05T15:19:48.211Z,41.16
2023-04-05T15:22:12.102Z,43.07
2023-04-05T15:24:36.145Z,41.47
2023-04-05T15:27:02.299Z,41.37
2023-04-05T15:29:28.022Z,42.47
2023-04-05T15:31:52.038Z,40.84
2023-04-05T15:34:16.127Z,41.29
2023-04-05T15:36:39.924Z,41.65
2023-04-05T15:39:05.199Z,42.70
2023-04-05T15:41:30.570Z,42.10
2023-04-05T15:43:54.501Z,42.52
2023-04-05T15:46:19.816Z,41.01
2023-04-05T15:48:44.186Z,42.11
2023-04-05T15:51:08.080Z,43.17
2023-04-05T15:53:31.896Z,42.40
2023-04-05T15:55:58.396Z,42.04
2023-04-05T15:58:22.409Z,41.78
2023-04-05T16:00:46.687Z,42.60
2023-04-05T16:03:12.134Z,42.86
2023-04-05T16:05:36.117Z,42.68
2023-04-05T16:08:00.026Z,42.30
2023-04-05T16:10:23.885Z,42.62
2023-04-05T16:12:47.928Z,41.97
2023-04-05T16:15:12.644Z,42.63
2023-04-05T16:17:36.716Z,42.79
2023-04-05T16:20:02.588Z,42.18
2023-04-05T16:22:27.483Z,43.15
2023-04-05T16:24:51.724Z,42.13
2023-04-05T16:27:15.939Z,43.61
2023-04-05T16:29:39.950Z,42.13
2023-04-05T16:32:04.069Z,43.42
2023-04-05T16:34:28.735Z,43.54
2023-04-05T16:36:54.907Z,42.89
2023-04-05T16:39:18.933Z,42.87
2023-04-05T16:41:42.864Z,42.32
2023-04-05T16:44:06.895Z,45.49
2023-04-05T16:46:32.235Z,45.01
2023-04-05T16:48:56.317Z,43.61
2023-04-05T16:51:20.369Z,44.94
2023-04-05T16:53:45.854Z,44.55
2023-04-05T16:56:09.761Z,44.40
2023-04-05T16:58:33.575Z,43.85
2023-04-05T17:00:59.087Z,44.49
2023-04-05T17:03:23.579Z,45.95
2023-04-05T17:05:48.190Z,44.33
2023-04-05T17:08:12.392Z,43.98
2023-04-05T17:10:39.503Z,43.52
2023-04-05T17:13:03.374Z,43.96
2023-04-05T17:15:28.159Z,44.42
2023-04-05T17:17:52.012Z,46.14
2023-04-05T17:20:15.894Z,44.39
2023-04-05T17:22:41.148Z,44.55
2023-04-05T17:25:05.871Z,44.92
2023-04-05T17:27:31.133Z,44.04
2023-04-05T17:29:54.949Z,45.58
2023-04-05T17:32:18.754Z,44.30
2023-04-05T17:34:42.692Z,45.87
2023-04-05T17:37:06.508Z,44.96
2023-04-05T17:39:30.409Z,44.87
2023-04-05T17:41:55.972Z,44.70
2023-04-05T17:44:21.328Z,45.54
2023-04-05T17:46:51.293Z,44.72
2023-04-05T17:49:25.436Z,45.59
2023-04-05T17:51:49.593Z,46.13
2023-04-05T17:54:15.420Z,46.40
2023-04-05T17:56:39.267Z,45.87
2023-04-05T17:59:04.294Z,48.44
2023-04-05T18:01:29.920Z,46.62
2023-04-05T18:03:53.949Z,46.25
2023-04-05T18:06:20.060Z,45.72
2023-04-05T18:08:43.883Z,46.21
2023-04-05T18:11:07.642Z,46.25
2023-04-05T18:13:32.313Z,45.71
2023-04-05T18:15:56.844Z,47.79
2023-04-05T18:18:22.670Z,48.08
2023-04-05T18:20:46.427Z,45.93
2023-04-05T18:23:10.365Z,47.33
2023-04-05T18:25:34.170Z,48.04
2023-04-05T18:27:58.577Z,47.44
2023-04-05T18:30:22.769Z,48.12
2023-04-05T18:32:46.936Z,48.27
2023-04-05T18:35:13.256Z,49.63
2023-04-05T18:37:37.270Z,49.14
2023-04-05T18:40:01.133Z,48.37
2023-04-05T18:42:24.978Z,49.97
2023-04-05T18:44:49.326Z,48.25
2023-04-05T18:47:13.167Z,48.92
2023-04-05T18:49:37.162Z,49.12
2023-04-05T18:52:02.461Z,48.90
2023-04-05T18:54:26.549Z,49.68
2023-04-05T18:56:50.583Z,49.40
2023-04-05T18:59:14.514Z,48.16
2023-04-05T19:01:39.065Z,48.89
2023-04-05T19:04:04.148Z,49.65
2023-04-05T19:06:28.121Z,49.71
2023-04-05T19:08:53.439Z,50.01
2023-04-05T19:11:18.607Z,52.71
2023-04-05T19:13:42.568Z,50.79
2023-04-05T19:16:06.781Z,49.28
2023-04-05T19:18:30.820Z,48.84
2023-04-05T19:20:56.045Z,48.69
2023-04-05T19:23:19.949Z,49.18
2023-04-05T19:25:45.679Z,49.46
2023-04-05T19:28:09.445Z,49.23
2023-04-05T19:30:33.591Z,49.91
2023-04-05T19:32:57.358Z,49.85
2023-04-05T19:35:21.289Z,50.54
2023-04-05T19:37:45.054Z,49.88
2023-04-05T19:40:10.857Z,51.15
2023-04-05T19:42:36.137Z,50.02
2023-04-05T19:45:00.628Z,49.56
2023-04-05T19:47:25.478Z,49.69
2023-04-05T19:49:51.189Z,50.05
2023-04-05T19:52:35.341Z,50.79
2023-04-05T19:54:59.233Z,51.02
2023-04-05T19:57:23.077Z,51.51
2023-04-05T19:59:48.557Z,50.96
2023-04-05T20:02:36.729Z,51.08
2023-04-05T20:05:00.745Z,51.44
2023-04-05T20:07:24.516Z,51.94
2023-04-05T20:09:48.512Z,51.90
2023-04-05T20:12:15.868Z,52.32
2023-04-05T20:14:43.302Z,52.59
2023-04-05T20:17:09.132Z,52.88
2023-04-05T20:19:33.371Z,52.90
2023-04-05T20:21:59.537Z,53.83
2023-04-05T20:24:25.920Z,54.13
2023-04-05T20:26:56.838Z,54.17
2023-04-05T20:29:26.678Z,55.79
2023-04-05T20:31:50.927Z,53.83
2023-04-05T20:34:20.022Z,55.04
2023-04-05T20:36:49.777Z,55.80
2023-04-05T20:39:13.592Z,54.50
2023-04-05T20:41:37.492Z,55.18
2023-04-05T20:44:02.144Z,55.66
2023-04-05T20:46:26.220Z,55.58
2023-04-05T20:48:51.205Z,56.12
2023-04-05T20:51:17.376Z,55.55
2023-04-05T20:53:41.253Z,55.76
2023-04-05T20:56:06.988Z,55.48
2023-04-05T20:58:30.956Z,55.12
2023-04-05T21:00:54.910Z,56.19
2023-04-05T21:03:18.824Z,55.98
2023-04-05T21:05:43.159Z,57.19
2023-04-05T21:08:09.245Z,57.63
2023-04-05T21:10:33.165Z,57.33
2023-04-05T21:12:57.163Z,57.12
2023-04-05T21:15:21.055Z,57.06
2023-04-05T21:17:44.915Z,58.61
2023-04-05T21:20:10.059Z,58.50
2023-04-05T21:22:33.938Z,57.57
2023-04-05T21:24:59.151Z,59.38
2023-04-05T21:27:22.973Z,58.36
2023-04-05T21:29:46.764Z,58.32
2023-04-05T21:32:10.591Z,58.10
2023-04-05T21:34:34.378Z,58.99
2023-04-05T21:36:58.104Z,58.49
2023-04-05T21:39:22.026Z,59.36
2023-04-05T21:41:47.386Z,60.83
2023-04-05T21:44:11.230Z,60.00
2023-04-05T21:46:35.061Z,58.99
2023-04-05T21:48:58.997Z,59.77
2023-04-05T21:51:23.204Z,59.04
2023-04-05T21:53:48.053Z,59.78
2023-04-05T21:56:11.885Z,60.61
2023-04-05T21:58:37.194Z,61.19
2023-04-05T22:01:01.526Z,59.43
2023-04-05T22:03:25.640Z,59.53
2023-04-05T22:05:49.464Z,59.55
2023-04-05T22:08:13.521Z,59.94
2023-04-05T22:10:37.520Z,60.18
2023-04-05T22:13:01.446Z,60.78
2023-04-05T22:15:26.702Z,60.54
2023-04-05T22:17:50.624Z,61.26
2023-04-05T22:20:14.911Z,59.65
2023-04-05T22:22:38.794Z,59.75
2023-04-05T22:25:02.593Z,61.89
2023-04-05T22:27:28.278Z,60.36
2023-04-05T22:29:52.887Z,60.67
2023-04-05T22:32:18.119Z,60.31
2023-04-05T22:34:41.941Z,62.53
2023-04-05T22:37:05.976Z,62.39
2023-04-05T22:39:29.774Z,61.99
2023-04-05T22:41:53.709Z,61.49
2023-04-05T22:44:17.460Z,61.79
2023-04-05T22:46:41.320Z,61.50
2023-04-05T22:49:06.853Z,61.79
2023-04-05T22:51:31.700Z,61.76
2023-04-05T22:53:55.484Z,61.38
2023-04-05T22:56:21.503Z,62.00
2023-04-05T22:58:45.248Z,61.36
2023-04-05T23:01:09.674Z,63.11
2023-04-05T23:03:33.662Z,64.86
2023-04-05T23:05:58.906Z,62.12
2023-04-05T23:08:22.696Z,63.19
2023-04-05T23:10:46.955Z,63.09
2023-04-05T23:13:10.737Z,62.18
2023-04-05T23:15:34.679Z,63.25
2023-04-05T23:17:58.543Z,64.04
2023-04-05T23:20:22.650Z,62.84
2023-04-05T23:22:48.100Z,62.97
2023-04-05T23:25:12.498Z,62.00
2023-04-05T23:27:36.430Z,62.06
2023-04-05T23:30:00.377Z,62.04
2023-04-05T23:32:24.312Z,61.15
2023-04-05T23:34:48.649Z,61.03
2023-04-05T23:37:12.421Z,61.58
2023-04-05T23:39:37.870Z,63.61
2023-04-05T23:42:01.849Z,62.53
2023-04-05T23:44:25.896Z,62.50
2023-04-05T23:46:49.692Z,62.03
2023-04-05T23:49:13.494Z,60.94
2023-04-05T23:51:37.355Z,61.61
2023-04-05T23:54:01.247Z,62.06
2023-04-05T23:56:26.515Z,61.99
2023-04-05T23:58:50.506Z,62.25
